WetterOnline ( http://www.wetteronline.de )

Wetter aktuell Wermeslkirchen

Aktuelles Wetter: Werl (84m)

6-stündlich | Neueste Meldungen
Ortszeit Temperatur Wetter
Fr, 18.01. 7:00 -1.2° C wolkenlos
Fr, 18.01. 1:00 0.7° C bedeckt
Do, 17.01. 19:00 2.2° C leicht bewölkt
Do, 17.01. 13:00 3.8° C Regen
Do, 17.01. 7:00 4.7° C wolkig
Do, 17.01. 1:00 5.3° C bedeckt
Mi, 16.01. 19:00 4.5° C bewölkt
Mi, 16.01. 13:00 5.9° C bewölkt
Ortszeit Temperatur Wetter
Fr, 18.01. 9:30 -0.8° C leicht bewölkt
Fr, 18.01. 9:20 -0.8° C leicht bewölkt
Fr, 18.01. 9:10 -1.1° C bewölkt
Fr, 18.01. 9:00 -1.6° C wolkig
Fr, 18.01. 8:50 -1.6° C wolkig
Fr, 18.01. 8:40 -2.0° C leicht bewölkt
Fr, 18.01. 8:30 -2.3° C leicht bewölkt
Fr, 18.01. 8:00 -2.0° C leicht bewölkt
Fr, 18.01. 7:30 -1.6° C fast wolkenlos
Fr, 18.01. 7:00 -1.2° C wolkenlos
Fr, 18.01. 6:30 -1.1° C wolkenlos
Ortszeit Relative Feuchte Sichtweite
Fr, 18.01. 7:00 93% 12 km
Fr, 18.01. 1:00 93% 5.0 km
Do, 17.01. 19:00 84% 27 km
Do, 17.01. 13:00 93% 3.0 km
Do, 17.01. 7:00 89% 21 km
Do, 17.01. 1:00 78% 22 km
Mi, 16.01. 19:00 75% 30 km
Mi, 16.01. 13:00 73% 23 km
Ortszeit Relative Feuchte Sichtweite
Fr, 18.01. 9:30 90% 7 km
Fr, 18.01. 9:20 90% -
Fr, 18.01. 9:10 91% -
Fr, 18.01. 9:00 91% 6 km
Fr, 18.01. 8:50 91% -
Fr, 18.01. 8:40 91% -
Fr, 18.01. 8:30 91% 6 km
Fr, 18.01. 8:00 91% 8 km
Fr, 18.01. 7:30 92% 11 km
Fr, 18.01. 7:00 93% 12 km
Fr, 18.01. 6:30 92% 15 km
Ortszeit Niederschlagsmenge Niederschlagsart
Fr, 18.01. 7:00 0.1 l/m2 in 12 Std. Schnee
Fr, 18.01. 1:00 0.1 l/m2 in 6 Std. Schnee, Sprühregen
Do, 17.01. 19:00 7 l/m2 in 12 Std. Regen
Do, 17.01. 13:00 3 l/m2 in 6 Std. Regen
Do, 17.01. 7:00 1 l/m2 in 12 Std. Regen
Do, 17.01. 1:00 0.0 l/m2 in 6 Std. -
Mi, 16.01. 19:00 0.1 l/m2 in 12 Std. -
Mi, 16.01. 13:00 0.1 l/m2 in 6 Std. Sprühregen
Ortszeit Niederschlagsmenge Niederschlagsart
Fr, 18.01. 9:30 0.0 l/m2 in 1 Std. -
Fr, 18.01. 9:20 keine Meldung -
Fr, 18.01. 9:10 keine Meldung -
Fr, 18.01. 9:00 0.0 l/m2 in 1 Std. -
Fr, 18.01. 8:50 keine Meldung -
Fr, 18.01. 8:40 keine Meldung -
Fr, 18.01. 8:30 0.0 l/m2 in 1 Std. -
Fr, 18.01. 8:00 0.0 l/m2 in 1 Std. -
Fr, 18.01. 7:30 0.0 l/m2 in 1 Std. -
Fr, 18.01. 7:00 0.0 l/m2 in 1 Std. Schnee
Fr, 18.01. 6:30 0.0 l/m2 in 1 Std. -
Ortszeit Stärke Spitze Richtung
km/h Bft. km/h Grad Sektor
Fr, 18.01. 7:00 7 2 25 230° SW
Fr, 18.01. 1:00 24 4 37 260° W
Do, 17.01. 19:00 22 4 41 250° W
Do, 17.01. 13:00 22 4 36 270° W
Do, 17.01. 7:00 18 3 43 250° W
Do, 17.01. 1:00 25 4 47 230° SW
Mi, 16.01. 19:00 18 3 47 200° S
Mi, 16.01. 13:00 29 5 50 220° SW
Ortszeit Stärke Spitze Richtung
km/h Bft. km/h Grad Sektor
Fr, 18.01. 9:30 11 2 14 250° W
Fr, 18.01. 9:20 11 2 - 250° W
Fr, 18.01. 9:10 11 2 - 260° W
Fr, 18.01. 9:00 11 2 14 270° W
Fr, 18.01. 8:50 11 2 - 270° W
Fr, 18.01. 8:40 11 2 - 260° W
Fr, 18.01. 8:30 11 2 11 260° W
Fr, 18.01. 8:00 7 2 14 250° W
Fr, 18.01. 7:30 7 2 14 240° SW
Fr, 18.01. 7:00 7 2 14 230° SW
Fr, 18.01. 6:30 7 2 14 250° W
Ortszeit Untergrenze Bedeckung Gattung
total tief tief mittel hoch
Fr, 18.01. 7:00 - 0/8 0/8 - - -
Fr, 18.01. 1:00 270 m 8/8 8/8 - - -
Do, 17.01. 19:00 480 m 4/8 4/8 - - -
Do, 17.01. 13:00 330 m 8/8 8/8 - - -
Do, 17.01. 7:00 600 m 8/8 1/8 - - -
Do, 17.01. 1:00 570 m 8/8 8/8 - - -
Mi, 16.01. 19:00 870 m 8/8 5/8 - - -
Mi, 16.01. 13:00 660 m 7/8 7/8 - - -
Ortszeit Bedeckungsgrad in Achtel und Wolkenuntergrenze
Fr, 18.01. 9:30 3(1050m) 3(9000m)
Fr, 18.01. 9:20 3(1050m) 3(9000m)
Fr, 18.01. 9:10 5(1020m) 6(1200m) 7(9000m)
Fr, 18.01. 9:00 4(990m) 6(8700m)
Fr, 18.01. 8:50 4(990m) 6(8700m)
Fr, 18.01. 8:40 1(990m) 5(8400m)
Fr, 18.01. 8:30 5(8400m)
Fr, 18.01. 8:00 2(1080m) 4(8700m)
Fr, 18.01. 7:30 1(9000m)
Fr, 18.01. 7:00 keine Wolken
Fr, 18.01. 6:30 keine Wolken
Ortszeit Luftdruck NN (hPa) Tendenz (hPa in 3 Std.)
Fr, 18.01. 7:00 1018 + 2,2
Fr, 18.01. 1:00 1013 + 2,8
Do, 17.01. 19:00 1007 + 3,1
Do, 17.01. 13:00 1001 - 1,5
Do, 17.01. 7:00 1002 0,0
Do, 17.01. 1:00 1002 - 1,7
Mi, 16.01. 19:00 1005 - 2,4
Mi, 16.01. 13:00 1010 - 1,9
Ortszeit Luftdruck NN (hPa) Tendenz (hPa in 3 Std.)
Fr, 18.01. 9:30 1020 + 2,4
Fr, 18.01. 9:20 1020 keine Meldung
Fr, 18.01. 9:10 1020 keine Meldung
Fr, 18.01. 9:00 1020 + 2,3
Fr, 18.01. 8:50 1020 keine Meldung
Fr, 18.01. 8:40 1020 keine Meldung
Fr, 18.01. 8:30 1020 + 2,2
Fr, 18.01. 8:00 1019 + 2,1
Fr, 18.01. 7:30 1019 + 2,1
Fr, 18.01. 7:00 1018 + 2,2
Fr, 18.01. 6:30 1018 + 2,3
Ortszeit Schneehöhe (cm)
Fr, 18.01. 7:00 0
Fr, 18.01. 1:00 0
Do, 17.01. 19:00 0
Do, 17.01. 13:00 0
Do, 17.01. 7:00 0
Do, 17.01. 1:00 0
Mi, 16.01. 19:00 0
Mi, 16.01. 13:00 0
Ortszeit Schneehöhe (cm)
Fr, 18.01. 9:30 0
Fr, 18.01. 9:20 0
Fr, 18.01. 9:10 0
Fr, 18.01. 9:00 0
Fr, 18.01. 8:50 0
Fr, 18.01. 8:40 0
Fr, 18.01. 8:30 0
Fr, 18.01. 8:00 0
Fr, 18.01. 7:30 0
Fr, 18.01. 7:00 0
Fr, 18.01. 6:30 0
Link zu dieser Seite / Seite empfehlen

Das Wetter in ...